sensor_id;sensor_type;location;lat;lon;timestamp;pressure;altitude;pressure_sealevel;temperature;humidity
10716;BME280;5409;42.620;23.316;2023-04-04T00:01:11;90801.63;;;6.50;100.00
10716;BME280;5409;42.620;23.316;2023-04-04T00:03:37;90797.25;;;6.53;100.00
10716;BME280;5409;42.620;23.316;2023-04-04T00:06:04;90800.44;;;6.51;100.00
10716;BME280;5409;42.620;23.316;2023-04-04T00:08:31;90779.06;;;6.35;100.00
10716;BME280;5409;42.620;23.316;2023-04-04T00:11:00;90802.69;;;6.53;100.00
10716;BME280;5409;42.620;23.316;2023-04-04T00:13:27;90813.06;;;6.54;100.00
10716;BME280;5409;42.620;23.316;2023-04-04T00:15:54;90811.69;;;6.50;100.00
10716;BME280;5409;42.620;23.316;2023-04-04T00:18:21;90824.47;;;6.58;100.00
10716;BME280;5409;42.620;23.316;2023-04-04T00:20:48;90816.97;;;6.53;100.00
10716;BME280;5409;42.620;23.316;2023-04-04T00:23:15;90811.41;;;6.57;100.00
10716;BME280;5409;42.620;23.316;2023-04-04T00:25:42;90811.41;;;6.66;100.00
10716;BME280;5409;42.620;23.316;2023-04-04T00:28:11;90813.50;;;6.62;100.00
10716;BME280;5409;42.620;23.316;2023-04-04T00:30:38;90797.13;;;6.65;100.00
10716;BME280;5409;42.620;23.316;2023-04-04T00:33:04;90791.88;;;6.62;100.00
10716;BME280;5409;42.620;23.316;2023-04-04T00:35:31;90786.75;;;6.64;100.00
10716;BME280;5409;42.620;23.316;2023-04-04T00:37:58;90785.97;;;6.63;100.00
10716;BME280;5409;42.620;23.316;2023-04-04T00:40:25;90782.53;;;6.63;100.00
10716;BME280;5409;42.620;23.316;2023-04-04T00:42:52;90783.56;;;6.65;100.00
10716;BME280;5409;42.620;23.316;2023-04-04T00:45:20;90778.16;;;6.65;100.00
10716;BME280;5409;42.620;23.316;2023-04-04T00:47:47;90776.97;;;6.66;100.00
10716;BME280;5409;42.620;23.316;2023-04-04T00:50:15;90768.69;;;6.70;100.00
10716;BME280;5409;42.620;23.316;2023-04-04T00:52:42;90770.22;;;6.71;100.00
10716;BME280;5409;42.620;23.316;2023-04-04T00:55:09;90762.66;;;6.74;100.00
10716;BME280;5409;42.620;23.316;2023-04-04T00:57:36;90778.63;;;6.73;100.00
10716;BME280;5409;42.620;23.316;2023-04-04T01:00:04;90772.75;;;6.74;100.00
10716;BME280;5409;42.620;23.316;2023-04-04T01:02:34;90777.56;;;6.79;100.00
10716;BME280;5409;42.620;23.316;2023-04-04T01:05:02;90771.84;;;6.77;100.00
10716;BME280;5409;42.620;23.316;2023-04-04T01:07:29;90775.91;;;6.81;100.00
10716;BME280;5409;42.620;23.316;2023-04-04T01:09:55;90781.63;;;6.83;100.00
10716;BME280;5409;42.620;23.316;2023-04-04T01:12:22;90780.88;;;6.83;100.00
10716;BME280;5409;42.620;23.316;2023-04-04T01:14:50;90784.63;;;6.85;100.00
10716;BME280;5409;42.620;23.316;2023-04-04T01:17:18;90781.78;;;6.89;100.00
10716;BME280;5409;42.620;23.316;2023-04-04T01:19:50;90774.56;;;6.77;100.00
10716;BME280;5409;42.620;23.316;2023-04-04T01:22:18;90775.75;;;6.76;100.00
10716;BME280;5409;42.620;23.316;2023-04-04T01:24:47;90776.50;;;6.76;100.00
10716;BME280;5409;42.620;23.316;2023-04-04T01:27:16;90768.06;;;6.74;100.00
10716;BME280;5409;42.620;23.316;2023-04-04T01:29:42;90773.06;;;6.76;100.00
10716;BME280;5409;42.620;23.316;2023-04-04T01:32:12;90773.78;;;6.76;100.00
10716;BME280;5409;42.620;23.316;2023-04-04T01:34:42;90767.50;;;6.71;100.00
10716;BME280;5409;42.620;23.316;2023-04-04T01:37:15;90766.72;;;6.61;100.00
10716;BME280;5409;42.620;23.316;2023-04-04T01:39:48;90772.75;;;6.47;100.00
10716;BME280;5409;42.620;23.316;2023-04-04T01:42:18;90761.75;;;6.42;100.00
10716;BME280;5409;42.620;23.316;2023-04-04T01:44:45;90751.41;;;6.40;100.00
10716;BME280;5409;42.620;23.316;2023-04-04T01:47:12;90749.00;;;6.42;100.00
10716;BME280;5409;42.620;23.316;2023-04-04T01:49:39;90743.44;;;6.46;100.00
10716;BME280;5409;42.620;23.316;2023-04-04T01:52:06;90738.31;;;6.39;100.00
10716;BME280;5409;42.620;23.316;2023-04-04T01:54:33;90732.31;;;6.35;100.00
10716;BME280;5409;42.620;23.316;2023-04-04T01:57:01;90721.19;;;6.33;100.00
10716;BME280;5409;42.620;23.316;2023-04-04T01:59:29;90732.16;;;6.29;100.00
10716;BME280;5409;42.620;23.316;2023-04-04T02:01:56;90732.63;;;6.28;100.00
10716;BME280;5409;42.620;23.316;2023-04-04T02:04:22;90728.53;;;6.23;100.00
10716;BME280;5409;42.620;23.316;2023-04-04T02:06:49;90731.41;;;6.20;100.00
10716;BME280;5409;42.620;23.316;2023-04-04T02:09:16;90731.09;;;6.27;100.00
10716;BME280;5409;42.620;23.316;2023-04-04T02:11:43;90735.31;;;6.28;100.00
10716;BME280;5409;42.620;23.316;2023-04-04T02:14:10;90743.44;;;6.28;100.00
10716;BME280;5409;42.620;23.316;2023-04-04T02:16:38;90741.47;;;6.28;100.00
10716;BME280;5409;42.620;23.316;2023-04-04T02:19:05;90733.81;;;6.27;100.00
10716;BME280;5409;42.620;23.316;2023-04-04T02:21:31;90728.53;;;6.23;100.00
10716;BME280;5409;42.620;23.316;2023-04-04T02:23:58;90725.81;;;6.23;100.00
10716;BME280;5409;42.620;23.316;2023-04-04T02:26:25;90727.78;;;6.23;100.00
10716;BME280;5409;42.620;23.316;2023-04-04T02:28:52;90732.91;;;6.21;100.00
10716;BME280;5409;42.620;23.316;2023-04-04T02:31:18;90735.59;;;6.21;100.00
10716;BME280;5409;42.620;23.316;2023-04-04T02:33:47;90733.19;;;6.14;100.00
10716;BME280;5409;42.620;23.316;2023-04-04T02:36:14;90741.31;;;6.23;100.00
10716;BME280;5409;42.620;23.316;2023-04-04T02:38:40;90733.22;;;6.23;100.00
10716;BME280;5409;42.620;23.316;2023-04-04T02:41:07;90732.31;;;6.26;100.00
10716;BME280;5409;42.620;23.316;2023-04-04T02:43:34;90732.91;;;6.21;100.00
10716;BME280;5409;42.620;23.316;2023-04-04T02:46:00;90736.66;;;6.23;100.00
10716;BME280;5409;42.620;23.316;2023-04-04T02:48:27;90736.81;;;6.29;100.00
10716;BME280;5409;42.620;23.316;2023-04-04T02:50:55;90741.31;;;6.23;100.00
10716;BME280;5409;42.620;23.316;2023-04-04T02:53:22;90747.34;;;6.27;100.00
10716;BME280;5409;42.620;23.316;2023-04-04T02:55:49;90746.75;;;6.32;100.00
10716;BME280;5409;42.620;23.316;2023-04-04T02:58:16;90740.28;;;6.38;100.00
10716;BME280;5409;42.620;23.316;2023-04-04T03:00:42;90736.97;;;6.43;100.00
10716;BME280;5409;42.620;23.316;2023-04-04T03:03:11;90734.69;;;6.42;100.00
10716;BME280;5409;42.620;23.316;2023-04-04T03:05:38;90732.59;;;6.46;100.00
10716;BME280;5409;42.620;23.316;2023-04-04T03:08:06;90737.72;;;6.44;100.00
10716;BME280;5409;42.620;23.316;2023-04-04T03:10:33;90740.28;;;6.47;100.00
10716;BME280;5409;42.620;23.316;2023-04-04T03:13:00;90746.59;;;6.44;100.00
10716;BME280;5409;42.620;23.316;2023-04-04T03:15:26;90744.03;;;6.50;100.00
10716;BME280;5409;42.620;23.316;2023-04-04T03:17:53;90726.28;;;6.40;100.00
10716;BME280;5409;42.620;23.316;2023-04-04T03:20:21;90738.00;;;6.55;100.00
10716;BME280;5409;42.620;23.316;2023-04-04T03:22:47;90740.59;;;6.49;100.00
10716;BME280;5409;42.620;23.316;2023-04-04T03:25:16;90741.03;;;6.48;100.00
10716;BME280;5409;42.620;23.316;2023-04-04T03:27:42;90743.13;;;6.44;100.00
10716;BME280;5409;42.620;23.316;2023-04-04T03:30:10;90746.72;;;6.41;100.00
10716;BME280;5409;42.620;23.316;2023-04-04T03:32:37;90753.50;;;6.36;100.00
10716;BME280;5409;42.620;23.316;2023-04-04T03:35:05;90750.97;;;6.33;100.00
10716;BME280;5409;42.620;23.316;2023-04-04T03:37:32;90747.06;;;6.34;100.00
10716;BME280;5409;42.620;23.316;2023-04-04T03:39:59;90751.09;;;6.38;100.00
10716;BME280;5409;42.620;23.316;2023-04-04T03:42:32;90751.56;;;6.37;100.00
10716;BME280;5409;42.620;23.316;2023-04-04T03:44:58;90752.16;;;6.32;100.00
10716;BME280;5409;42.620;23.316;2023-04-04T03:47:25;90757.88;;;6.34;100.00
10716;BME280;5409;42.620;23.316;2023-04-04T03:49:52;90752.16;;;6.32;100.00
10716;BME280;5409;42.620;23.316;2023-04-04T03:52:20;90748.84;;;6.28;100.00
10716;BME280;5409;42.620;23.316;2023-04-04T03:54:47;90768.97;;;6.18;100.00
10716;BME280;5409;42.620;23.316;2023-04-04T03:57:13;90750.78;;;6.27;100.00
10716;BME280;5409;42.620;23.316;2023-04-04T03:59:41;90752.91;;;6.32;100.00
10716;BME280;5409;42.620;23.316;2023-04-04T04:02:08;90754.41;;;6.33;100.00
10716;BME280;5409;42.620;23.316;2023-04-04T04:04:35;90757.09;;;6.33;100.00
10716;BME280;5409;42.620;23.316;2023-04-04T04:07:02;90755.47;;;6.36;100.00
10716;BME280;5409;42.620;23.316;2023-04-04T04:09:29;90755.47;;;6.36;100.00
10716;BME280;5409;42.620;23.316;2023-04-04T04:11:55;90759.50;;;6.31;100.00
10716;BME280;5409;42.620;23.316;2023-04-04T04:14:22;90762.69;;;6.30;100.00
10716;BME280;5409;42.620;23.316;2023-04-04T04:16:50;90759.38;;;6.26;100.00
10716;BME280;5409;42.620;23.316;2023-04-04T04:19:17;90761.31;;;6.34;100.00
10716;BME280;5409;42.620;23.316;2023-04-04T04:21:44;90780.69;;;6.24;100.00
10716;BME280;5409;42.620;23.316;2023-04-04T04:24:10;90764.00;;;6.25;100.00
10716;BME280;5409;42.620;23.316;2023-04-04T04:26:37;90762.22;;;6.31;100.00
10716;BME280;5409;42.620;23.316;2023-04-04T04:29:04;90763.28;;;6.34;100.00
10716;BME280;5409;42.620;23.316;2023-04-04T04:31:31;90762.38;;;6.37;100.00
10716;BME280;5409;42.620;23.316;2023-04-04T04:34:00;90756.81;;;6.31;100.00
10716;BME280;5409;42.620;23.316;2023-04-04T04:36:27;90772.59;;;6.42;100.00
10716;BME280;5409;42.620;23.316;2023-04-04T04:38:54;90779.38;;;6.37;100.00
10716;BME280;5409;42.620;23.316;2023-04-04T04:41:21;90780.09;;;6.38;100.00
10716;BME280;5409;42.620;23.316;2023-04-04T04:43:47;90786.25;;;6.20;100.00
10716;BME280;5409;42.620;23.316;2023-04-04T04:46:14;90786.69;;;6.19;100.00
10716;BME280;5409;42.620;23.316;2023-04-04T04:48:41;90792.25;;;6.24;100.00
10716;BME280;5409;42.620;23.316;2023-04-04T04:51:09;90800.38;;;6.24;100.00
10716;BME280;5409;42.620;23.316;2023-04-04T04:53:36;90807.75;;;6.24;100.00
10716;BME280;5409;42.620;23.316;2023-04-04T04:56:03;90799.06;;;6.29;100.00
10716;BME280;5409;42.620;23.316;2023-04-04T04:58:30;90789.13;;;6.26;100.00
10716;BME280;5409;42.620;23.316;2023-04-04T05:00:57;90788.66;;;6.27;100.00
10716;BME280;5409;42.620;23.316;2023-04-04T05:03:24;90791.38;;;6.27;100.00
10716;BME280;5409;42.620;23.316;2023-04-04T05:05:52;90758.13;;;6.09;100.00
10716;BME280;5409;42.620;23.316;2023-04-04T05:08:20;90826.13;;;6.47;100.00
10716;BME280;5409;42.620;23.316;2023-04-04T05:10:47;90814.72;;;6.52;100.00
10716;BME280;5409;42.620;23.316;2023-04-04T05:13:13;90814.41;;;6.59;100.00
10716;BME280;5409;42.620;23.316;2023-04-04T05:15:40;90824.47;;;6.58;100.00
10716;BME280;5409;42.620;23.316;2023-04-04T05:18:07;90828.25;;;6.61;100.00
10716;BME280;5409;42.620;23.316;2023-04-04T05:20:34;90824.03;;;6.60;100.00
10716;BME280;5409;42.620;23.316;2023-04-04T05:23:00;90830.06;;;6.73;100.00
10716;BME280;5409;42.620;23.316;2023-04-04T05:25:28;90837.44;;;6.81;100.00
10716;BME280;5409;42.620;23.316;2023-04-04T05:27:55;90839.09;;;6.87;100.00
10716;BME280;5409;42.620;23.316;2023-04-04T05:30:23;90824.94;;;6.92;100.00
10716;BME280;5409;42.620;23.316;2023-04-04T05:32:49;90829.47;;;6.95;100.00
10716;BME280;5409;42.620;23.316;2023-04-04T05:35:16;90826.75;;;6.95;100.00
10716;BME280;5409;42.620;23.316;2023-04-04T05:37:43;90828.88;;;7.00;100.00
10716;BME280;5409;42.620;23.316;2023-04-04T05:40:10;90828.09;;;7.00;100.00
10716;BME280;5409;42.620;23.316;2023-04-04T05:42:38;90837.91;;;6.97;100.00
10716;BME280;5409;42.620;23.316;2023-04-04T05:45:05;90831.28;;;6.98;100.00
10716;BME280;5409;42.620;23.316;2023-04-04T05:47:32;90837.00;;;7.09;100.00
10716;BME280;5409;42.620;23.316;2023-04-04T05:49:59;90842.25;;;7.22;100.00
10716;BME280;5409;42.620;23.316;2023-04-04T05:52:26;90838.94;;;7.27;100.00
10716;BME280;5409;42.620;23.316;2023-04-04T05:54:52;90839.19;;;7.29;100.00
10716;BME280;5409;42.620;23.316;2023-04-04T05:57:19;90836.78;;;7.31;100.00
10716;BME280;5409;42.620;23.316;2023-04-04T05:59:47;90836.19;;;7.36;100.00
10716;BME280;5409;42.620;23.316;2023-04-04T06:02:14;90838.75;;;7.39;100.00
10716;BME280;5409;42.620;23.316;2023-04-04T06:04:40;90839.66;;;7.45;100.00
10716;BME280;5409;42.620;23.316;2023-04-04T06:07:09;90846.66;;;7.70;100.00
10716;BME280;5409;42.620;23.316;2023-04-04T06:09:36;90844.94;;;7.90;100.00
10716;BME280;5409;42.620;23.316;2023-04-04T06:12:03;90849.09;;;8.09;100.00
10716;BME280;5409;42.620;23.316;2023-04-04T06:14:29;90850.13;;;8.20;100.00
10716;BME280;5409;42.620;23.316;2023-04-04T06:16:58;90853.84;;;8.32;100.00
10716;BME280;5409;42.620;23.316;2023-04-04T06:19:24;90853.16;;;8.46;100.00
10716;BME280;5409;42.620;23.316;2023-04-04T06:21:51;90827.91;;;8.31;100.00
10716;BME280;5409;42.620;23.316;2023-04-04T06:24:17;90854.25;;;8.63;100.00
10716;BME280;5409;42.620;23.316;2023-04-04T06:26:44;90861.66;;;8.62;100.00
10716;BME280;5409;42.620;23.316;2023-04-04T06:29:15;90813.06;;;8.41;100.00
10716;BME280;5409;42.620;23.316;2023-04-04T06:31:42;90862.41;;;8.86;100.00
10716;BME280;5409;42.620;23.316;2023-04-04T06:34:10;90863.97;;;9.02;100.00
10716;BME280;5409;42.620;23.316;2023-04-04T06:36:36;90873.47;;;9.06;100.00
10716;BME280;5409;42.620;23.316;2023-04-04T06:39:03;90867.84;;;9.09;100.00
10716;BME280;5409;42.620;23.316;2023-04-04T06:41:30;90875.06;;;8.89;100.00
10716;BME280;5409;42.620;23.316;2023-04-04T06:43:57;90879.06;;;8.79;100.00
10716;BME280;5409;42.620;23.316;2023-04-04T06:46:24;90880.84;;;8.82;100.00
10716;BME280;5409;42.620;23.316;2023-04-04T06:48:51;90888.16;;;8.44;100.00
10716;BME280;5409;42.620;23.316;2023-04-04T06:51:20;90887.66;;;8.13;100.00
10716;BME280;5409;42.620;23.316;2023-04-04T06:53:47;90897.38;;;7.87;100.00
10716;BME280;5409;42.620;23.316;2023-04-04T06:56:14;90892.16;;;7.66;100.00
10716;BME280;5409;42.620;23.316;2023-04-04T06:58:41;90902.13;;;7.33;100.00
10716;BME280;5409;42.620;23.316;2023-04-04T07:01:07;90912.09;;;7.18;100.00
10716;BME280;5409;42.620;23.316;2023-04-04T07:03:34;90912.22;;;6.96;100.00
10716;BME280;5409;42.620;23.316;2023-04-04T07:06:01;90925.13;;;6.83;100.00
10716;BME280;5409;42.620;23.316;2023-04-04T07:08:30;90936.97;;;6.59;100.00
10716;BME280;5409;42.620;23.316;2023-04-04T07:10:57;90939.88;;;6.25;100.00
10716;BME280;5409;42.620;23.316;2023-04-04T07:13:24;90948.50;;;6.02;100.00
10716;BME280;5409;42.620;23.316;2023-04-04T07:15:51;90951.53;;;5.83;100.00
10716;BME280;5409;42.620;23.316;2023-04-04T07:18:17;90952.47;;;5.67;100.00
10716;BME280;5409;42.620;23.316;2023-04-04T07:20:45;90958.63;;;5.47;100.00
10716;BME280;5409;42.620;23.316;2023-04-04T07:23:12;90968.53;;;5.07;100.00
10716;BME280;5409;42.620;23.316;2023-04-04T07:25:41;90975.72;;;4.76;100.00
10716;BME280;5409;42.620;23.316;2023-04-04T07:28:07;90980.41;;;4.63;100.00
10716;BME280;5409;42.620;23.316;2023-04-04T07:30:34;90988.84;;;4.52;100.00
10716;BME280;5409;42.620;23.316;2023-04-04T07:33:02;90982.25;;;4.41;100.00
10716;BME280;5409;42.620;23.316;2023-04-04T07:35:28;90989.69;;;4.37;100.00
10716;BME280;5409;42.620;23.316;2023-04-04T07:37:55;90993.38;;;4.31;100.00
10716;BME280;5409;42.620;23.316;2023-04-04T07:40:22;90991.53;;;4.03;100.00
10716;BME280;5409;42.620;23.316;2023-04-04T07:42:50;90991.53;;;4.03;100.00
10716;BME280;5409;42.620;23.316;2023-04-04T07:45:19;90998.00;;;4.05;100.00
10716;BME280;5409;42.620;23.316;2023-04-04T07:47:46;90979.25;;;3.89;100.00
10716;BME280;5409;42.620;23.316;2023-04-04T07:50:13;90954.88;;;3.80;100.00
10716;BME280;5409;42.620;23.316;2023-04-04T07:52:40;91002.97;;;4.07;100.00
10716;BME280;5409;42.620;23.316;2023-04-04T07:55:07;90998.66;;;3.97;100.00
10716;BME280;5409;42.620;23.316;2023-04-04T07:57:36;91006.00;;;3.96;100.00
10716;BME280;5409;42.620;23.316;2023-04-04T08:00:06;91003.81;;;3.91;100.00
10716;BME280;5409;42.620;23.316;2023-04-04T08:02:34;91014.50;;;3.95;100.00
10716;BME280;5409;42.620;23.316;2023-04-04T08:05:01;91024.22;;;3.92;100.00
10716;BME280;5409;42.620;23.316;2023-04-04T08:07:27;91019.56;;;3.93;100.00
10716;BME280;5409;42.620;23.316;2023-04-04T08:09:54;91027.22;;;3.94;100.00
10716;BME280;5409;42.620;23.316;2023-04-04T08:12:21;91033.13;;;3.77;100.00
10716;BME280;5409;42.620;23.316;2023-04-04T08:14:48;91029.44;;;3.71;100.00
10716;BME280;5409;42.620;23.316;2023-04-04T08:17:16;91026.09;;;3.67;100.00
10716;BME280;5409;42.620;23.316;2023-04-04T08:19:44;91033.97;;;3.74;100.00
10716;BME280;5409;42.620;23.316;2023-04-04T08:22:11;91028.81;;;3.79;100.00
10716;BME280;5409;42.620;23.316;2023-04-04T08:24:38;91039.44;;;3.70;100.00
10716;BME280;5409;42.620;23.316;2023-04-04T08:27:04;91045.50;;;3.74;100.00
10716;BME280;5409;42.620;23.316;2023-04-04T08:29:31;91048.97;;;3.75;100.00
10716;BME280;5409;42.620;23.316;2023-04-04T08:31:58;91057.50;;;3.86;100.00
10716;BME280;5409;42.620;23.316;2023-04-04T08:34:26;91010.50;;;3.46;100.00
10716;BME280;5409;42.620;23.316;2023-04-04T08:36:53;91053.84;;;3.92;100.00
10716;BME280;5409;42.620;23.316;2023-04-04T08:39:20;91059.34;;;3.89;100.00
10716;BME280;5409;42.620;23.316;2023-04-04T08:41:51;91062.84;;;3.73;100.00
10716;BME280;5409;42.620;23.316;2023-04-04T08:44:23;91057.78;;;3.75;100.00
10716;BME280;5409;42.620;23.316;2023-04-04T08:46:53;91065.00;;;3.66;100.00
10716;BME280;5409;42.620;23.316;2023-04-04T08:49:21;91066.81;;;3.40;100.00
10716;BME280;5409;42.620;23.316;2023-04-04T08:51:50;91062.91;;;3.57;100.00
10716;BME280;5409;42.620;23.316;2023-04-04T08:54:19;91056.72;;;3.44;100.00
10716;BME280;5409;42.620;23.316;2023-04-04T08:56:46;91080.97;;;3.44;100.00
10716;BME280;5409;42.620;23.316;2023-04-04T08:59:13;91079.78;;;3.45;100.00
10716;BME280;5409;42.620;23.316;2023-04-04T09:01:40;91082.69;;;3.51;100.00
10716;BME280;5409;42.620;23.316;2023-04-04T09:04:07;91077.78;;;3.62;100.00
10716;BME280;5409;42.620;23.316;2023-04-04T09:06:34;91075.56;;;3.44;100.00
10716;BME280;5409;42.620;23.316;2023-04-04T09:09:03;91074.50;;;3.42;100.00
10716;BME280;5409;42.620;23.316;2023-04-04T09:11:30;91081.81;;;3.41;100.00
10716;BME280;5409;42.620;23.316;2023-04-04T09:13:57;91085.53;;;3.32;100.00
10716;BME280;5409;42.620;23.316;2023-04-04T09:16:27;91079.44;;;3.43;100.00
10716;BME280;5409;42.620;23.316;2023-04-04T09:18:54;91096.78;;;3.42;100.00
10716;BME280;5409;42.620;23.316;2023-04-04T09:21:20;91080.28;;;3.40;100.00
10716;BME280;5409;42.620;23.316;2023-04-04T09:23:57;91070.84;;;3.48;100.00
10716;BME280;5409;42.620;23.316;2023-04-04T09:26:25;91076.81;;;3.56;100.00
10716;BME280;5409;42.620;23.316;2023-04-04T09:28:52;91087.53;;;3.43;100.00
10716;BME280;5409;42.620;23.316;2023-04-04T09:31:18;91088.72;;;3.42;100.00
10716;BME280;5409;42.620;23.316;2023-04-04T09:33:47;91091.84;;;3.41;100.00
10716;BME280;5409;42.620;23.316;2023-04-04T09:36:14;91102.16;;;3.42;100.00
10716;BME280;5409;42.620;23.316;2023-04-04T09:38:42;91098.81;;;3.38;100.00
10716;BME280;5409;42.620;23.316;2023-04-04T09:41:09;91097.84;;;3.17;100.00
10716;BME280;5409;42.620;23.316;2023-04-04T09:43:43;91094.13;;;3.27;100.00
10716;BME280;5409;42.620;23.316;2023-04-04T09:46:10;91089.59;;;3.24;100.00
10716;BME280;5409;42.620;23.316;2023-04-04T09:48:37;91094.53;;;3.41;100.00
10716;BME280;5409;42.620;23.316;2023-04-04T09:51:04;91097.06;;;3.32;100.00
10716;BME280;5409;42.620;23.316;2023-04-04T09:53:34;91086.97;;;3.20;100.00
10716;BME280;5409;42.620;23.316;2023-04-04T09:56:02;91091.25;;;3.33;100.00
10716;BME280;5409;42.620;23.316;2023-04-04T09:58:29;91100.44;;;3.36;100.00
10716;BME280;5409;42.620;23.316;2023-04-04T10:01:07;91089.31;;;3.34;100.00
10716;BME280;5409;42.620;23.316;2023-04-04T10:03:35;91088.75;;;3.83;100.00
10716;BME280;5409;42.620;23.316;2023-04-04T10:06:05;91092.59;;;3.98;100.00
10716;BME280;5409;42.620;23.316;2023-04-04T10:08:32;91082.81;;;4.17;100.00
10716;BME280;5409;42.620;23.316;2023-04-04T10:11:00;91094.47;;;4.26;100.00
10716;BME280;5409;42.620;23.316;2023-04-04T10:13:29;91092.97;;;4.25;100.00
10716;BME280;5409;42.620;23.316;2023-04-04T10:15:57;91102.13;;;4.28;100.00
10716;BME280;5409;42.620;23.316;2023-04-04T10:18:26;91107.34;;;4.06;100.00
10716;BME280;5409;42.620;23.316;2023-04-04T10:20:55;91116.22;;;4.07;100.00
10716;BME280;5409;42.620;23.316;2023-04-04T10:23:22;91120.31;;;3.83;100.00
10716;BME280;5409;42.620;23.316;2023-04-04T10:25:51;91122.66;;;3.97;100.00
10716;BME280;5409;42.620;23.316;2023-04-04T10:28:19;91132.63;;;3.84;100.00
10716;BME280;5409;42.620;23.316;2023-04-04T10:30:49;91131.91;;;3.96;100.00
10716;BME280;5409;42.620;23.316;2023-04-04T10:33:21;91137.75;;;3.94;100.00
10716;BME280;5409;42.620;23.316;2023-04-04T10:35:50;91144.34;;;4.06;100.00
10716;BME280;5409;42.620;23.316;2023-04-04T10:38:21;91147.94;;;3.87;100.00
10716;BME280;5409;42.620;23.316;2023-04-04T10:40:50;91152.97;;;4.01;100.00
10716;BME280;5409;42.620;23.316;2023-04-04T10:43:23;91155.69;;;3.85;100.00
10716;BME280;5409;42.620;23.316;2023-04-04T10:45:51;91155.69;;;3.40;100.00
10716;BME280;5409;42.620;23.316;2023-04-04T10:48:18;91151.09;;;3.25;100.00
10716;BME280;5409;42.620;23.316;2023-04-04T10:50:48;91155.97;;;3.30;100.00
10716;BME280;5409;42.620;23.316;2023-04-04T10:53:17;91155.47;;;3.19;100.00
10716;BME280;5409;42.620;23.316;2023-04-04T10:55:43;91153.38;;;3.11;100.00
10716;BME280;5409;42.620;23.316;2023-04-04T10:58:11;91147.13;;;2.98;100.00
10716;BME280;5409;42.620;23.316;2023-04-04T11:00:48;91151.00;;;2.97;100.00
10716;BME280;5409;42.620;23.316;2023-04-04T11:03:16;91153.28;;;2.98;100.00
10716;BME280;5409;42.620;23.316;2023-04-04T11:05:42;91156.91;;;3.08;100.00
10716;BME280;5409;42.620;23.316;2023-04-04T11:08:16;91154.78;;;3.15;100.00
10716;BME280;5409;42.620;23.316;2023-04-04T11:10:46;91151.00;;;3.13;100.00
10716;BME280;5409;42.620;23.316;2023-04-04T11:13:14;91175.81;;;3.20;100.00
10716;BME280;5409;42.620;23.316;2023-04-04T11:15:45;91177.84;;;3.16;100.00
10716;BME280;5409;42.620;23.316;2023-04-04T11:18:18;91176.16;;;3.22;100.00
10716;BME280;5409;42.620;23.316;2023-04-04T11:20:46;91181.72;;;3.15;100.00
10716;BME280;5409;42.620;23.316;2023-04-04T11:23:18;91179.00;;;3.15;100.00
10716;BME280;5409;42.620;23.316;2023-04-04T11:25:51;91178.88;;;3.06;100.00
10716;BME280;5409;42.620;23.316;2023-04-04T11:28:26;91187.09;;;2.99;100.00
10716;BME280;5409;42.620;23.316;2023-04-04T11:31:25;91193.38;;;2.93;100.00
10716;BME280;5409;42.620;23.316;2023-04-04T11:33:57;91181.59;;;2.71;100.00
10716;BME280;5409;42.620;23.316;2023-04-04T11:36:50;91181.78;;;2.80;100.00
10716;BME280;5409;42.620;23.316;2023-04-04T11:39:24;91174.59;;;2.73;100.00
10716;BME280;5409;42.620;23.316;2023-04-04T11:41:53;91185.72;;;2.91;100.00
10716;BME280;5409;42.620;23.316;2023-04-04T11:44:22;91177.06;;;3.00;100.00
10716;BME280;5409;42.620;23.316;2023-04-04T11:46:54;91177.16;;;3.12;100.00
10716;BME280;5409;42.620;23.316;2023-04-04T11:49:24;91185.66;;;3.11;100.00
10716;BME280;5409;42.620;23.316;2023-04-04T11:51:53;91187.53;;;3.14;100.00
10716;BME280;5409;42.620;23.316;2023-04-04T11:54:21;91185.09;;;3.03;100.00
10716;BME280;5409;42.620;23.316;2023-04-04T11:56:49;91188.44;;;2.91;100.00
10716;BME280;5409;42.620;23.316;2023-04-04T11:59:17;91184.91;;;2.94;100.00
10716;BME280;5409;42.620;23.316;2023-04-04T12:01:44;91189.69;;;2.87;100.00
10716;BME280;5409;42.620;23.316;2023-04-04T12:04:11;91169.69;;;2.88;100.00
10716;BME280;5409;42.620;23.316;2023-04-04T12:06:38;91183.63;;;2.83;100.00
10716;BME280;5409;42.620;23.316;2023-04-04T12:09:05;91182.06;;;3.01;100.00
10716;BME280;5409;42.620;23.316;2023-04-04T12:11:35;91184.91;;;3.10;100.00
10716;BME280;5409;42.620;23.316;2023-04-04T12:14:02;91184.38;;;2.83;100.00
10716;BME280;5409;42.620;23.316;2023-04-04T12:16:29;91191.88;;;2.92;100.00
10716;BME280;5409;42.620;23.316;2023-04-04T12:18:59;91183.03;;;2.91;100.00
10716;BME280;5409;42.620;23.316;2023-04-04T12:21:30;91177.22;;;2.93;100.00
10716;BME280;5409;42.620;23.316;2023-04-04T12:23:56;91189.16;;;2.92;100.00
10716;BME280;5409;42.620;23.316;2023-04-04T12:26:24;91188.09;;;3.21;100.00
10716;BME280;5409;42.620;23.316;2023-04-04T12:28:55;91183.91;;;3.20;100.00
10716;BME280;5409;42.620;23.316;2023-04-04T12:31:23;91197.38;;;3.04;100.00
10716;BME280;5409;42.620;23.316;2023-04-04T12:33:50;91187.94;;;2.96;100.00
10716;BME280;5409;42.620;23.316;2023-04-04T12:36:17;91193.72;;;2.79;100.00
10716;BME280;5409;42.620;23.316;2023-04-04T12:38:57;91206.03;;;2.60;100.00
10716;BME280;5409;42.620;23.316;2023-04-04T12:41:25;91202.06;;;2.49;100.00
10716;BME280;5409;42.620;23.316;2023-04-04T12:44:00;91202.81;;;2.30;100.00
10716;BME280;5409;42.620;23.316;2023-04-04T12:46:28;91199.03;;;2.27;100.00
10716;BME280;5409;42.620;23.316;2023-04-04T12:49:00;91198.38;;;2.39;100.00
10716;BME280;5409;42.620;23.316;2023-04-04T12:51:30;91203.13;;;2.51;100.00
10716;BME280;5409;42.620;23.316;2023-04-04T12:53:58;91197.88;;;2.64;100.00
10716;BME280;5409;42.620;23.316;2023-04-04T12:56:25;91201.34;;;2.64;100.00
10716;BME280;5409;42.620;23.316;2023-04-04T12:58:52;91196.72;;;2.45;100.00
10716;BME280;5409;42.620;23.316;2023-04-04T13:01:20;91207.81;;;2.47;100.00
10716;BME280;5409;42.620;23.316;2023-04-04T13:03:47;91202.00;;;2.33;100.00